sensor_id;sensor_type;location;lat;lon;timestamp;P1;durP1;ratioP1;P2;durP2;ratioP2
74233;SDS011;62591;55.764;37.718;2024-02-04T00:00:26;15.20;;;6.10;;
74233;SDS011;62591;55.764;37.718;2024-02-04T00:02:56;12.73;;;6.40;;
74233;SDS011;62591;55.764;37.718;2024-02-04T00:05:25;10.57;;;5.10;;
74233;SDS011;62591;55.764;37.718;2024-02-04T00:07:54;10.75;;;5.13;;
74233;SDS011;62591;55.764;37.718;2024-02-04T00:10:22;10.00;;;4.80;;
74233;SDS011;62591;55.764;37.718;2024-02-04T00:12:51;9.90;;;4.97;;
74233;SDS011;62591;55.764;37.718;2024-02-04T00:15:20;10.55;;;5.53;;
74233;SDS011;62591;55.764;37.718;2024-02-04T00:17:49;10.35;;;4.65;;
74233;SDS011;62591;55.764;37.718;2024-02-04T00:20:19;8.38;;;4.65;;
74233;SDS011;62591;55.764;37.718;2024-02-04T00:22:48;9.00;;;4.50;;
74233;SDS011;62591;55.764;37.718;2024-02-04T00:25:17;12.35;;;6.53;;
74233;SDS011;62591;55.764;37.718;2024-02-04T00:27:46;11.40;;;5.70;;
74233;SDS011;62591;55.764;37.718;2024-02-04T00:30:15;11.05;;;5.32;;
74233;SDS011;62591;55.764;37.718;2024-02-04T00:32:44;13.25;;;5.63;;
74233;SDS011;62591;55.764;37.718;2024-02-04T00:35:12;9.35;;;5.18;;
74233;SDS011;62591;55.764;37.718;2024-02-04T00:37:43;10.85;;;5.20;;
74233;SDS011;62591;55.764;37.718;2024-02-04T00:40:11;9.68;;;4.85;;
74233;SDS011;62591;55.764;37.718;2024-02-04T00:42:40;10.57;;;5.82;;
74233;SDS011;62591;55.764;37.718;2024-02-04T00:45:09;10.90;;;5.22;;
74233;SDS011;62591;55.764;37.718;2024-02-04T00:47:38;11.93;;;5.90;;
74233;SDS011;62591;55.764;37.718;2024-02-04T00:50:07;9.80;;;4.72;;
74233;SDS011;62591;55.764;37.718;2024-02-04T00:52:38;9.77;;;5.38;;
74233;SDS011;62591;55.764;37.718;2024-02-04T00:55:09;9.57;;;4.63;;
74233;SDS011;62591;55.764;37.718;2024-02-04T00:57:55;9.13;;;4.25;;
74233;SDS011;62591;55.764;37.718;2024-02-04T01:00:27;10.85;;;4.68;;
74233;SDS011;62591;55.764;37.718;2024-02-04T01:02:56;10.00;;;5.13;;
74233;SDS011;62591;55.764;37.718;2024-02-04T01:05:25;8.82;;;4.43;;
74233;SDS011;62591;55.764;37.718;2024-02-04T01:07:53;9.50;;;4.63;;
74233;SDS011;62591;55.764;37.718;2024-02-04T01:10:24;7.38;;;4.38;;
74233;SDS011;62591;55.764;37.718;2024-02-04T01:12:52;8.20;;;4.22;;
74233;SDS011;62591;55.764;37.718;2024-02-04T01:15:21;7.97;;;4.30;;
74233;SDS011;62591;55.764;37.718;2024-02-04T01:17:50;9.68;;;4.38;;
74233;SDS011;62591;55.764;37.718;2024-02-04T01:20:19;7.97;;;4.38;;
74233;SDS011;62591;55.764;37.718;2024-02-04T01:22:48;8.98;;;4.55;;
74233;SDS011;62591;55.764;37.718;2024-02-04T01:25:17;8.30;;;4.20;;
74233;SDS011;62591;55.764;37.718;2024-02-04T01:27:47;8.10;;;3.97;;
74233;SDS011;62591;55.764;37.718;2024-02-04T01:30:15;7.85;;;4.05;;
74233;SDS011;62591;55.764;37.718;2024-02-04T01:32:44;9.18;;;3.88;;
74233;SDS011;62591;55.764;37.718;2024-02-04T01:35:13;8.07;;;4.65;;
74233;SDS011;62591;55.764;37.718;2024-02-04T01:37:42;7.25;;;3.75;;
74233;SDS011;62591;55.764;37.718;2024-02-04T01:40:15;6.03;;;3.60;;
74233;SDS011;62591;55.764;37.718;2024-02-04T01:42:44;9.27;;;4.20;;
74233;SDS011;62591;55.764;37.718;2024-02-04T01:45:14;7.47;;;3.67;;
74233;SDS011;62591;55.764;37.718;2024-02-04T01:47:43;6.22;;;3.60;;
74233;SDS011;62591;55.764;37.718;2024-02-04T01:50:14;7.72;;;3.75;;
74233;SDS011;62591;55.764;37.718;2024-02-04T01:52:43;6.22;;;3.55;;
74233;SDS011;62591;55.764;37.718;2024-02-04T01:55:12;6.70;;;3.72;;
74233;SDS011;62591;55.764;37.718;2024-02-04T01:57:41;7.18;;;3.63;;
74233;SDS011;62591;55.764;37.718;2024-02-04T02:00:11;7.35;;;3.30;;
74233;SDS011;62591;55.764;37.718;2024-02-04T02:02:42;7.10;;;3.45;;
74233;SDS011;62591;55.764;37.718;2024-02-04T02:05:14;5.45;;;3.05;;
74233;SDS011;62591;55.764;37.718;2024-02-04T02:07:42;5.38;;;3.38;;
74233;SDS011;62591;55.764;37.718;2024-02-04T02:10:13;6.38;;;3.58;;
74233;SDS011;62591;55.764;37.718;2024-02-04T02:12:45;6.03;;;3.33;;
74233;SDS011;62591;55.764;37.718;2024-02-04T02:15:21;6.43;;;2.97;;
74233;SDS011;62591;55.764;37.718;2024-02-04T02:17:55;5.70;;;3.40;;
74233;SDS011;62591;55.764;37.718;2024-02-04T02:20:28;6.82;;;3.17;;
74233;SDS011;62591;55.764;37.718;2024-02-04T02:23:05;6.07;;;3.55;;
74233;SDS011;62591;55.764;37.718;2024-02-04T02:25:37;6.30;;;3.33;;
74233;SDS011;62591;55.764;37.718;2024-02-04T02:28:07;7.22;;;3.28;;
74233;SDS011;62591;55.764;37.718;2024-02-04T02:30:36;5.20;;;2.80;;
74233;SDS011;62591;55.764;37.718;2024-02-04T02:33:05;4.93;;;3.00;;
74233;SDS011;62591;55.764;37.718;2024-02-04T02:35:35;4.68;;;2.72;;
74233;SDS011;62591;55.764;37.718;2024-02-04T02:38:23;5.95;;;2.60;;
74233;SDS011;62591;55.764;37.718;2024-02-04T02:43:26;5.80;;;2.55;;
74233;SDS011;62591;55.764;37.718;2024-02-04T02:45:57;5.80;;;3.10;;
74233;SDS011;62591;55.764;37.718;2024-02-04T02:48:26;6.18;;;2.75;;
74233;SDS011;62591;55.764;37.718;2024-02-04T02:50:56;5.25;;;2.83;;
74233;SDS011;62591;55.764;37.718;2024-02-04T02:53:25;4.53;;;2.33;;
74233;SDS011;62591;55.764;37.718;2024-02-04T02:55:54;5.75;;;2.40;;
74233;SDS011;62591;55.764;37.718;2024-02-04T02:58:24;4.45;;;2.42;;
74233;SDS011;62591;55.764;37.718;2024-02-04T03:00:52;4.80;;;2.55;;
74233;SDS011;62591;55.764;37.718;2024-02-04T03:03:21;3.70;;;2.28;;
74233;SDS011;62591;55.764;37.718;2024-02-04T03:05:50;4.05;;;2.33;;
74233;SDS011;62591;55.764;37.718;2024-02-04T03:08:19;3.90;;;2.30;;
74233;SDS011;62591;55.764;37.718;2024-02-04T03:10:47;3.63;;;1.98;;
74233;SDS011;62591;55.764;37.718;2024-02-04T03:13:17;4.13;;;2.30;;
74233;SDS011;62591;55.764;37.718;2024-02-04T03:15:46;5.30;;;2.83;;
74233;SDS011;62591;55.764;37.718;2024-02-04T03:18:15;3.03;;;1.88;;
74233;SDS011;62591;55.764;37.718;2024-02-04T03:20:43;3.85;;;2.17;;
74233;SDS011;62591;55.764;37.718;2024-02-04T03:23:12;6.55;;;2.10;;
74233;SDS011;62591;55.764;37.718;2024-02-04T03:25:40;4.32;;;2.40;;
74233;SDS011;62591;55.764;37.718;2024-02-04T03:28:13;4.32;;;2.30;;
74233;SDS011;62591;55.764;37.718;2024-02-04T03:30:44;4.53;;;1.80;;
74233;SDS011;62591;55.764;37.718;2024-02-04T03:33:12;3.33;;;1.95;;
74233;SDS011;62591;55.764;37.718;2024-02-04T03:35:42;4.32;;;2.15;;
74233;SDS011;62591;55.764;37.718;2024-02-04T03:38:10;3.08;;;1.80;;
74233;SDS011;62591;55.764;37.718;2024-02-04T03:40:39;3.83;;;1.60;;
74233;SDS011;62591;55.764;37.718;2024-02-04T03:43:10;5.13;;;2.03;;
74233;SDS011;62591;55.764;37.718;2024-02-04T03:45:39;3.00;;;1.60;;
74233;SDS011;62591;55.764;37.718;2024-02-04T03:48:09;3.13;;;1.50;;
74233;SDS011;62591;55.764;37.718;2024-02-04T03:50:39;3.15;;;1.60;;
74233;SDS011;62591;55.764;37.718;2024-02-04T03:53:08;3.67;;;1.52;;
74233;SDS011;62591;55.764;37.718;2024-02-04T03:55:37;2.22;;;1.25;;
74233;SDS011;62591;55.764;37.718;2024-02-04T03:58:06;3.20;;;1.02;;
74233;SDS011;62591;55.764;37.718;2024-02-04T04:00:35;2.10;;;1.10;;
74233;SDS011;62591;55.764;37.718;2024-02-04T04:03:03;2.78;;;1.02;;
74233;SDS011;62591;55.764;37.718;2024-02-04T04:05:34;1.52;;;0.77;;
74233;SDS011;62591;55.764;37.718;2024-02-04T04:08:03;1.95;;;0.90;;
74233;SDS011;62591;55.764;37.718;2024-02-04T04:10:32;2.53;;;1.02;;
74233;SDS011;62591;55.764;37.718;2024-02-04T04:13:01;1.80;;;0.77;;
74233;SDS011;62591;55.764;37.718;2024-02-04T04:15:30;1.70;;;0.80;;
74233;SDS011;62591;55.764;37.718;2024-02-04T04:17:59;2.10;;;0.88;;
74233;SDS011;62591;55.764;37.718;2024-02-04T04:20:28;2.15;;;0.80;;
74233;SDS011;62591;55.764;37.718;2024-02-04T04:23:15;1.67;;;0.80;;
74233;SDS011;62591;55.764;37.718;2024-02-04T04:25:44;2.10;;;0.60;;
74233;SDS011;62591;55.764;37.718;2024-02-04T04:28:13;2.38;;;0.70;;
74233;SDS011;62591;55.764;37.718;2024-02-04T04:30:42;1.05;;;0.43;;
74233;SDS011;62591;55.764;37.718;2024-02-04T04:33:11;2.97;;;0.60;;
74233;SDS011;62591;55.764;37.718;2024-02-04T04:35:40;1.65;;;0.57;;
74233;SDS011;62591;55.764;37.718;2024-02-04T04:38:09;1.40;;;0.55;;
74233;SDS011;62591;55.764;37.718;2024-02-04T04:40:39;1.85;;;0.80;;
74233;SDS011;62591;55.764;37.718;2024-02-04T04:43:08;1.42;;;0.50;;
74233;SDS011;62591;55.764;37.718;2024-02-04T04:45:36;1.88;;;0.65;;
74233;SDS011;62591;55.764;37.718;2024-02-04T04:48:05;0.93;;;0.30;;
74233;SDS011;62591;55.764;37.718;2024-02-04T04:50:36;1.83;;;0.75;;
74233;SDS011;62591;55.764;37.718;2024-02-04T04:53:04;5.25;;;2.85;;
74233;SDS011;62591;55.764;37.718;2024-02-04T04:55:34;2.03;;;1.00;;
74233;SDS011;62591;55.764;37.718;2024-02-04T04:58:04;2.72;;;1.20;;
74233;SDS011;62591;55.764;37.718;2024-02-04T05:00:33;1.20;;;0.50;;
74233;SDS011;62591;55.764;37.718;2024-02-04T05:03:04;1.85;;;0.70;;
74233;SDS011;62591;55.764;37.718;2024-02-04T05:05:33;0.90;;;0.40;;
74233;SDS011;62591;55.764;37.718;2024-02-04T05:08:01;1.30;;;0.47;;
74233;SDS011;62591;55.764;37.718;2024-02-04T05:10:31;2.75;;;0.50;;
74233;SDS011;62591;55.764;37.718;2024-02-04T05:13:01;1.05;;;0.43;;
74233;SDS011;62591;55.764;37.718;2024-02-04T05:15:32;0.75;;;0.38;;
74233;SDS011;62591;55.764;37.718;2024-02-04T05:18:19;2.03;;;0.50;;
74233;SDS011;62591;55.764;37.718;2024-02-04T05:20:48;1.15;;;0.50;;
74233;SDS011;62591;55.764;37.718;2024-02-04T05:23:16;1.80;;;0.63;;
74233;SDS011;62591;55.764;37.718;2024-02-04T05:25:45;2.22;;;0.70;;
74233;SDS011;62591;55.764;37.718;2024-02-04T05:31:02;2.42;;;0.60;;
74233;SDS011;62591;55.764;37.718;2024-02-04T05:36:23;4.15;;;1.30;;
74233;SDS011;62591;55.764;37.718;2024-02-04T05:41:40;1.48;;;0.57;;
74233;SDS011;62591;55.764;37.718;2024-02-04T05:44:09;1.40;;;0.57;;
74233;SDS011;62591;55.764;37.718;2024-02-04T05:46:39;2.83;;;0.52;;
74233;SDS011;62591;55.764;37.718;2024-02-04T05:49:08;2.83;;;0.70;;
74233;SDS011;62591;55.764;37.718;2024-02-04T05:51:38;3.08;;;1.38;;
74233;SDS011;62591;55.764;37.718;2024-02-04T05:54:08;1.77;;;0.73;;
74233;SDS011;62591;55.764;37.718;2024-02-04T05:56:37;1.73;;;0.57;;
74233;SDS011;62591;55.764;37.718;2024-02-04T05:59:05;1.30;;;0.47;;
74233;SDS011;62591;55.764;37.718;2024-02-04T06:01:34;1.40;;;0.50;;
74233;SDS011;62591;55.764;37.718;2024-02-04T06:04:04;1.30;;;0.57;;
74233;SDS011;62591;55.764;37.718;2024-02-04T06:06:33;0.75;;;0.40;;
74233;SDS011;62591;55.764;37.718;2024-02-04T06:09:03;1.65;;;0.52;;
74233;SDS011;62591;55.764;37.718;2024-02-04T06:11:32;1.05;;;0.50;;
74233;SDS011;62591;55.764;37.718;2024-02-04T06:14:01;1.10;;;0.52;;
74233;SDS011;62591;55.764;37.718;2024-02-04T06:16:30;3.03;;;0.90;;
74233;SDS011;62591;55.764;37.718;2024-02-04T06:19:01;1.60;;;0.65;;
74233;SDS011;62591;55.764;37.718;2024-02-04T06:21:31;2.10;;;0.90;;
74233;SDS011;62591;55.764;37.718;2024-02-04T06:24:00;1.40;;;0.60;;
74233;SDS011;62591;55.764;37.718;2024-02-04T06:26:29;2.45;;;0.75;;
74233;SDS011;62591;55.764;37.718;2024-02-04T06:28:58;2.75;;;0.60;;
74233;SDS011;62591;55.764;37.718;2024-02-04T06:31:26;1.77;;;0.73;;
74233;SDS011;62591;55.764;37.718;2024-02-04T06:33:55;1.83;;;0.70;;
74233;SDS011;62591;55.764;37.718;2024-02-04T06:36:24;1.23;;;0.52;;
74233;SDS011;62591;55.764;37.718;2024-02-04T06:38:55;1.20;;;0.40;;
74233;SDS011;62591;55.764;37.718;2024-02-04T06:41:24;1.70;;;0.60;;
74233;SDS011;62591;55.764;37.718;2024-02-04T06:43:52;1.45;;;0.60;;
74233;SDS011;62591;55.764;37.718;2024-02-04T06:46:24;4.65;;;1.05;;
74233;SDS011;62591;55.764;37.718;2024-02-04T06:48:55;2.60;;;0.93;;
74233;SDS011;62591;55.764;37.718;2024-02-04T06:51:25;1.98;;;0.70;;
74233;SDS011;62591;55.764;37.718;2024-02-04T06:53:56;2.47;;;0.57;;
74233;SDS011;62591;55.764;37.718;2024-02-04T06:56:24;4.38;;;0.80;;
74233;SDS011;62591;55.764;37.718;2024-02-04T06:58:54;3.45;;;0.57;;
74233;SDS011;62591;55.764;37.718;2024-02-04T07:01:23;0.93;;;0.40;;
74233;SDS011;62591;55.764;37.718;2024-02-04T07:03:52;2.95;;;0.50;;
74233;SDS011;62591;55.764;37.718;2024-02-04T07:06:21;2.70;;;0.70;;
74233;SDS011;62591;55.764;37.718;2024-02-04T07:08:51;3.75;;;0.70;;
74233;SDS011;62591;55.764;37.718;2024-02-04T07:11:23;1.70;;;0.55;;
74233;SDS011;62591;55.764;37.718;2024-02-04T07:13:53;3.08;;;0.60;;
74233;SDS011;62591;55.764;37.718;2024-02-04T07:16:25;1.30;;;0.55;;
74233;SDS011;62591;55.764;37.718;2024-02-04T07:18:55;2.08;;;0.60;;
74233;SDS011;62591;55.764;37.718;2024-02-04T07:21:24;1.17;;;0.43;;
74233;SDS011;62591;55.764;37.718;2024-02-04T07:23:52;1.67;;;0.50;;
74233;SDS011;62591;55.764;37.718;2024-02-04T07:26:23;1.50;;;0.50;;
74233;SDS011;62591;55.764;37.718;2024-02-04T07:28:51;1.77;;;0.57;;
74233;SDS011;62591;55.764;37.718;2024-02-04T07:31:20;1.42;;;0.50;;
74233;SDS011;62591;55.764;37.718;2024-02-04T07:33:49;1.30;;;0.43;;
74233;SDS011;62591;55.764;37.718;2024-02-04T07:36:18;3.67;;;0.70;;
74233;SDS011;62591;55.764;37.718;2024-02-04T07:38:47;1.85;;;0.57;;
74233;SDS011;62591;55.764;37.718;2024-02-04T07:41:18;1.75;;;0.60;;
74233;SDS011;62591;55.764;37.718;2024-02-04T07:43:49;1.52;;;0.45;;
74233;SDS011;62591;55.764;37.718;2024-02-04T07:46:17;1.88;;;0.40;;
74233;SDS011;62591;55.764;37.718;2024-02-04T07:48:46;1.08;;;0.32;;
74233;SDS011;62591;55.764;37.718;2024-02-04T07:51:16;1.00;;;0.40;;
74233;SDS011;62591;55.764;37.718;2024-02-04T07:53:45;0.75;;;0.35;;
74233;SDS011;62591;55.764;37.718;2024-02-04T07:56:14;2.67;;;0.40;;
74233;SDS011;62591;55.764;37.718;2024-02-04T07:58:43;1.98;;;0.73;;
74233;SDS011;62591;55.764;37.718;2024-02-04T08:01:32;1.27;;;0.50;;
74233;SDS011;62591;55.764;37.718;2024-02-04T08:04:02;3.42;;;0.70;;
74233;SDS011;62591;55.764;37.718;2024-02-04T08:06:32;1.20;;;0.52;;
74233;SDS011;62591;55.764;37.718;2024-02-04T08:09:02;1.35;;;0.40;;
74233;SDS011;62591;55.764;37.718;2024-02-04T08:11:31;1.17;;;0.52;;
74233;SDS011;62591;55.764;37.718;2024-02-04T08:14:00;3.85;;;0.63;;
74233;SDS011;62591;55.764;37.718;2024-02-04T08:16:29;1.50;;;0.43;;
74233;SDS011;62591;55.764;37.718;2024-02-04T08:19:18;3.38;;;0.60;;
74233;SDS011;62591;55.764;37.718;2024-02-04T08:21:51;0.80;;;0.30;;
74233;SDS011;62591;55.764;37.718;2024-02-04T08:24:19;2.60;;;0.30;;
74233;SDS011;62591;55.764;37.718;2024-02-04T08:26:51;3.80;;;0.60;;
74233;SDS011;62591;55.764;37.718;2024-02-04T08:29:20;1.25;;;0.60;;
74233;SDS011;62591;55.764;37.718;2024-02-04T08:31:48;1.25;;;0.47;;
74233;SDS011;62591;55.764;37.718;2024-02-04T08:34:19;2.30;;;0.60;;
74233;SDS011;62591;55.764;37.718;2024-02-04T08:36:51;3.22;;;1.25;;
74233;SDS011;62591;55.764;37.718;2024-02-04T08:39:21;2.47;;;0.60;;
74233;SDS011;62591;55.764;37.718;2024-02-04T08:41:50;1.77;;;0.60;;
74233;SDS011;62591;55.764;37.718;2024-02-04T08:44:19;5.22;;;0.70;;
74233;SDS011;62591;55.764;37.718;2024-02-04T08:47:02;1.38;;;0.60;;
74233;SDS011;62591;55.764;37.718;2024-02-04T08:49:32;1.60;;;0.52;;
74233;SDS011;62591;55.764;37.718;2024-02-04T08:52:02;5.22;;;0.60;;
74233;SDS011;62591;55.764;37.718;2024-02-04T08:54:32;2.28;;;0.73;;
74233;SDS011;62591;55.764;37.718;2024-02-04T08:57:01;1.45;;;0.57;;
74233;SDS011;62591;55.764;37.718;2024-02-04T08:59:31;1.90;;;0.60;;
74233;SDS011;62591;55.764;37.718;2024-02-04T09:02:00;1.65;;;0.60;;
74233;SDS011;62591;55.764;37.718;2024-02-04T09:04:34;2.53;;;0.73;;
74233;SDS011;62591;55.764;37.718;2024-02-04T09:07:08;1.80;;;0.80;;
74233;SDS011;62591;55.764;37.718;2024-02-04T09:09:37;2.20;;;0.98;;
74233;SDS011;62591;55.764;37.718;2024-02-04T09:12:07;2.72;;;1.15;;
74233;SDS011;62591;55.764;37.718;2024-02-04T09:14:38;5.13;;;1.52;;
74233;SDS011;62591;55.764;37.718;2024-02-04T09:17:07;4.43;;;1.60;;
74233;SDS011;62591;55.764;37.718;2024-02-04T09:19:38;5.28;;;1.30;;
74233;SDS011;62591;55.764;37.718;2024-02-04T09:22:09;3.42;;;1.05;;
74233;SDS011;62591;55.764;37.718;2024-02-04T09:24:38;4.93;;;1.20;;
74233;SDS011;62591;55.764;37.718;2024-02-04T09:27:07;3.58;;;1.10;;
74233;SDS011;62591;55.764;37.718;2024-02-04T09:29:36;4.28;;;1.55;;
74233;SDS011;62591;55.764;37.718;2024-02-04T09:32:06;6.93;;;1.50;;
74233;SDS011;62591;55.764;37.718;2024-02-04T09:34:35;4.65;;;1.40;;
74233;SDS011;62591;55.764;37.718;2024-02-04T09:37:05;6.00;;;1.00;;
74233;SDS011;62591;55.764;37.718;2024-02-04T09:39:34;5.40;;;1.02;;
74233;SDS011;62591;55.764;37.718;2024-02-04T09:42:04;2.60;;;1.20;;
74233;SDS011;62591;55.764;37.718;2024-02-04T09:44:33;4.07;;;1.45;;
74233;SDS011;62591;55.764;37.718;2024-02-04T09:47:05;5.72;;;1.55;;
74233;SDS011;62591;55.764;37.718;2024-02-04T09:49:38;4.50;;;1.30;;
74233;SDS011;62591;55.764;37.718;2024-02-04T09:52:09;4.95;;;1.20;;
74233;SDS011;62591;55.764;37.718;2024-02-04T09:54:49;3.63;;;0.90;;
74233;SDS011;62591;55.764;37.718;2024-02-04T09:57:23;4.25;;;1.30;;
74233;SDS011;62591;55.764;37.718;2024-02-04T09:59:52;4.35;;;1.25;;
74233;SDS011;62591;55.764;37.718;2024-02-04T10:02:22;3.97;;;1.83;;
74233;SDS011;62591;55.764;37.718;2024-02-04T10:04:52;3.22;;;1.20;;
74233;SDS011;62591;55.764;37.718;2024-02-04T10:07:24;5.05;;;1.27;;
74233;SDS011;62591;55.764;37.718;2024-02-04T10:09:55;3.92;;;1.20;;
74233;SDS011;62591;55.764;37.718;2024-02-04T10:12:24;4.47;;;1.17;;
74233;SDS011;62591;55.764;37.718;2024-02-04T10:14:53;3.50;;;0.80;;
74233;SDS011;62591;55.764;37.718;2024-02-04T10:17:21;3.55;;;1.05;;
74233;SDS011;62591;55.764;37.718;2024-02-04T10:19:51;4.93;;;1.48;;
74233;SDS011;62591;55.764;37.718;2024-02-04T10:22:20;5.88;;;1.88;;
74233;SDS011;62591;55.764;37.718;2024-02-04T10:24:50;6.35;;;1.80;;
74233;SDS011;62591;55.764;37.718;2024-02-04T10:27:19;4.55;;;1.27;;
74233;SDS011;62591;55.764;37.718;2024-02-04T10:30:02;10.05;;;1.38;;
74233;SDS011;62591;55.764;37.718;2024-02-04T10:32:31;5.13;;;1.70;;
74233;SDS011;62591;55.764;37.718;2024-02-04T10:35:00;6.13;;;1.23;;
74233;SDS011;62591;55.764;37.718;2024-02-04T10:37:30;7.60;;;1.50;;
74233;SDS011;62591;55.764;37.718;2024-02-04T10:40:00;13.93;;;3.58;;
74233;SDS011;62591;55.764;37.718;2024-02-04T10:42:30;5.05;;;1.52;;
74233;SDS011;62591;55.764;37.718;2024-02-04T10:45:00;5.65;;;1.13;;
74233;SDS011;62591;55.764;37.718;2024-02-04T10:47:33;7.30;;;1.38;;
74233;SDS011;62591;55.764;37.718;2024-02-04T10:50:06;6.05;;;1.20;;
74233;SDS011;62591;55.764;37.718;2024-02-04T10:52:37;5.65;;;1.55;;
74233;SDS011;62591;55.764;37.718;2024-02-04T10:55:10;3.85;;;1.23;;
74233;SDS011;62591;55.764;37.718;2024-02-04T10:57:44;6.43;;;1.13;;
74233;SDS011;62591;55.764;37.718;2024-02-04T11:00:14;5.00;;;1.20;;
74233;SDS011;62591;55.764;37.718;2024-02-04T11:02:45;4.28;;;0.90;;
74233;SDS011;62591;55.764;37.718;2024-02-04T11:05:15;4.75;;;1.10;;
74233;SDS011;62591;55.764;37.718;2024-02-04T11:07:45;5.90;;;1.08;;
74233;SDS011;62591;55.764;37.718;2024-02-04T11:10:16;6.60;;;1.35;;
74233;SDS011;62591;55.764;37.718;2024-02-04T11:12:46;5.97;;;1.40;;
74233;SDS011;62591;55.764;37.718;2024-02-04T11:15:18;6.15;;;1.30;;
74233;SDS011;62591;55.764;37.718;2024-02-04T11:18:09;6.07;;;1.38;;
74233;SDS011;62591;55.764;37.718;2024-02-04T11:23:58;5.32;;;1.05;;
74233;SDS011;62591;55.764;37.718;2024-02-04T11:26:39;5.97;;;1.50;;
74233;SDS011;62591;55.764;37.718;2024-02-04T11:29:09;4.63;;;1.17;;
74233;SDS011;62591;55.764;37.718;2024-02-04T11:31:40;5.63;;;1.17;;
74233;SDS011;62591;55.764;37.718;2024-02-04T11:34:09;5.60;;;1.17;;
74233;SDS011;62591;55.764;37.718;2024-02-04T11:36:39;4.88;;;1.13;;
74233;SDS011;62591;55.764;37.718;2024-02-04T11:39:11;5.43;;;1.38;;
74233;SDS011;62591;55.764;37.718;2024-02-04T11:41:47;5.47;;;1.40;;
74233;SDS011;62591;55.764;37.718;2024-02-04T11:44:21;3.58;;;1.00;;
74233;SDS011;62591;55.764;37.718;2024-02-04T11:46:51;4.88;;;1.45;;
74233;SDS011;62591;55.764;37.718;2024-02-04T11:49:24;4.50;;;1.10;;
74233;SDS011;62591;55.764;37.718;2024-02-04T11:51:54;3.92;;;1.02;;
74233;SDS011;62591;55.764;37.718;2024-02-04T11:54:25;4.43;;;1.05;;
74233;SDS011;62591;55.764;37.718;2024-02-04T11:56:55;4.30;;;1.08;;
74233;SDS011;62591;55.764;37.718;2024-02-04T11:59:24;6.90;;;1.88;;
74233;SDS011;62591;55.764;37.718;2024-02-04T12:01:54;5.00;;;1.20;;
74233;SDS011;62591;55.764;37.718;2024-02-04T12:04:27;4.20;;;0.80;;
74233;SDS011;62591;55.764;37.718;2024-02-04T12:06:56;3.45;;;1.00;;
74233;SDS011;62591;55.764;37.718;2024-02-04T12:09:26;5.03;;;0.90;;
74233;SDS011;62591;55.764;37.718;2024-02-04T12:11:56;2.75;;;0.85;;
74233;SDS011;62591;55.764;37.718;2024-02-04T12:14:25;3.38;;;0.93;;
74233;SDS011;62591;55.764;37.718;2024-02-04T12:16:54;6.50;;;0.80;;
74233;SDS011;62591;55.764;37.718;2024-02-04T12:19:24;4.68;;;0.80;;
74233;SDS011;62591;55.764;37.718;2024-02-04T12:21:53;3.20;;;0.98;;
74233;SDS011;62591;55.764;37.718;2024-02-04T12:24:23;3.20;;;0.60;;
74233;SDS011;62591;55.764;37.718;2024-02-04T12:26:51;3.88;;;1.10;;
74233;SDS011;62591;55.764;37.718;2024-02-04T12:29:22;2.15;;;0.70;;
74233;SDS011;62591;55.764;37.718;2024-02-04T12:31:57;5.05;;;1.38;;
74233;SDS011;62591;55.764;37.718;2024-02-04T12:34:26;4.75;;;1.50;;
74233;SDS011;62591;55.764;37.718;2024-02-04T12:36:59;2.53;;;0.80;;
74233;SDS011;62591;55.764;37.718;2024-02-04T12:39:28;4.35;;;1.13;;
74233;SDS011;62591;55.764;37.718;2024-02-04T12:42:00;1.52;;;0.57;;
74233;SDS011;62591;55.764;37.718;2024-02-04T12:44:30;5.93;;;2.47;;
74233;SDS011;62591;55.764;37.718;2024-02-04T12:47:00;3.10;;;1.00;;
74233;SDS011;62591;55.764;37.718;2024-02-04T12:49:29;1.88;;;0.60;;
74233;SDS011;62591;55.764;37.718;2024-02-04T12:52:03;4.30;;;1.00;;
74233;SDS011;62591;55.764;37.718;2024-02-04T12:54:39;3.00;;;0.75;;
74233;SDS011;62591;55.764;37.718;2024-02-04T12:57:09;2.25;;;0.77;;
74233;SDS011;62591;55.764;37.718;2024-02-04T12:59:41;3.35;;;0.90;;
74233;SDS011;62591;55.764;37.718;2024-02-04T13:02:09;1.52;;;0.43;;
74233;SDS011;62591;55.764;37.718;2024-02-04T13:04:42;3.88;;;0.90;;
74233;SDS011;62591;55.764;37.718;2024-02-04T13:07:12;3.25;;;0.77;;
74233;SDS011;62591;55.764;37.718;2024-02-04T13:09:44;4.20;;;0.75;;
74233;SDS011;62591;55.764;37.718;2024-02-04T13:12:14;4.13;;;0.85;;
74233;SDS011;62591;55.764;37.718;2024-02-04T13:14:45;2.25;;;0.70;;
74233;SDS011;62591;55.764;37.718;2024-02-04T13:17:14;5.72;;;1.00;;
74233;SDS011;62591;55.764;37.718;2024-02-04T13:19:43;3.22;;;0.80;;
74233;SDS011;62591;55.764;37.718;2024-02-04T13:22:12;4.05;;;1.00;;
74233;SDS011;62591;55.764;37.718;2024-02-04T13:24:41;3.00;;;0.70;;
74233;SDS011;62591;55.764;37.718;2024-02-04T13:27:10;4.75;;;0.80;;
74233;SDS011;62591;55.764;37.718;2024-02-04T13:29:42;6.30;;;0.98;;
74233;SDS011;62591;55.764;37.718;2024-02-04T13:32:13;3.38;;;0.70;;
74233;SDS011;62591;55.764;37.718;2024-02-04T13:34:42;4.07;;;0.80;;
74233;SDS011;62591;55.764;37.718;2024-02-04T13:37:12;4.05;;;1.08;;
74233;SDS011;62591;55.764;37.718;2024-02-04T13:39:41;4.82;;;0.95;;
74233;SDS011;62591;55.764;37.718;2024-02-04T13:42:11;4.13;;;0.80;;
74233;SDS011;62591;55.764;37.718;2024-02-04T13:44:40;5.50;;;0.90;;
74233;SDS011;62591;55.764;37.718;2024-02-04T13:47:09;2.10;;;0.80;;
74233;SDS011;62591;55.764;37.718;2024-02-04T13:49:39;6.45;;;0.93;;
74233;SDS011;62591;55.764;37.718;2024-02-04T13:52:08;5.10;;;1.92;;
74233;SDS011;62591;55.764;37.718;2024-02-04T13:54:37;3.15;;;0.90;;
74233;SDS011;62591;55.764;37.718;2024-02-04T13:57:15;3.42;;;1.00;;
74233;SDS011;62591;55.764;37.718;2024-02-04T13:59:44;3.90;;;0.82;;
74233;SDS011;62591;55.764;37.718;2024-02-04T14:02:16;3.75;;;0.82;;
74233;SDS011;62591;55.764;37.718;2024-02-04T14:04:47;4.20;;;0.73;;
74233;SDS011;62591;55.764;37.718;2024-02-04T14:07:16;4.72;;;0.90;;
74233;SDS011;62591;55.764;37.718;2024-02-04T14:09:46;3.60;;;1.00;;
74233;SDS011;62591;55.764;37.718;2024-02-04T14:12:15;2.55;;;0.88;;
74233;SDS011;62591;55.764;37.718;2024-02-04T14:14:43;7.88;;;1.75;;
74233;SDS011;62591;55.764;37.718;2024-02-04T14:17:12;7.28;;;1.30;;
74233;SDS011;62591;55.764;37.718;2024-02-04T14:19:42;3.50;;;1.05;;
74233;SDS011;62591;55.764;37.718;2024-02-04T14:22:17;7.45;;;1.77;;
74233;SDS011;62591;55.764;37.718;2024-02-04T14:24:49;3.10;;;1.30;;
74233;SDS011;62591;55.764;37.718;2024-02-04T14:27:18;6.95;;;1.67;;
74233;SDS011;62591;55.764;37.718;2024-02-04T14:29:49;4.57;;;1.65;;
74233;SDS011;62591;55.764;37.718;2024-02-04T14:32:17;5.30;;;1.42;;
74233;SDS011;62591;55.764;37.718;2024-02-04T14:34:46;3.13;;;1.00;;
74233;SDS011;62591;55.764;37.718;2024-02-04T14:37:18;5.32;;;1.65;;
74233;SDS011;62591;55.764;37.718;2024-02-04T14:39:47;2.97;;;0.98;;
74233;SDS011;62591;55.764;37.718;2024-02-04T14:42:16;5.75;;;1.67;;
74233;SDS011;62591;55.764;37.718;2024-02-04T14:44:45;4.78;;;1.27;;
74233;SDS011;62591;55.764;37.718;2024-02-04T14:47:14;6.53;;;1.88;;
74233;SDS011;62591;55.764;37.718;2024-02-04T14:49:44;4.78;;;1.23;;
74233;SDS011;62591;55.764;37.718;2024-02-04T14:52:13;5.22;;;1.20;;
74233;SDS011;62591;55.764;37.718;2024-02-04T14:54:46;5.40;;;1.20;;
74233;SDS011;62591;55.764;37.718;2024-02-04T14:57:15;4.13;;;1.30;;
74233;SDS011;62591;55.764;37.718;2024-02-04T14:59:44;4.57;;;1.40;;
74233;SDS011;62591;55.764;37.718;2024-02-04T15:02:13;5.18;;;1.17;;
74233;SDS011;62591;55.764;37.718;2024-02-04T15:04:42;4.88;;;0.95;;